Time;durP1;ratioP1;P1;durP2;ratioP2;P2;SDS_P1;SDS_P2;PMS_P1;PMS_P2;Temp;Humidity;BMP_temperature;BMP_pressure;BME280_temperature;BME280_humidity;BME280_pressure;Samples;Min_cycle;Max_cycle;Signal;HPM_P1;HPM_P2
2022/06/08 00:00:18;;;;;;;49.83;6.70;;;14.30;99.90;;;;;;5011115;28;20060;-60
2022/06/08 00:02:48;;;;;;;17.83;5.78;;;14.30;99.90;;;;;;5006225;28;20073;-59
2022/06/08 00:05:13;;;;;;;11.27;5.43;;;14.20;99.90;;;;;;5010060;28;20034;-59
2022/06/08 00:07:39;;;;;;;10.10;4.65;;;14.20;99.90;;;;;;5011304;28;20026;-58
2022/06/08 00:10:06;;;;;;;10.38;4.32;;;14.10;99.90;;;;;;4999608;28;20041;-60
2022/06/08 00:12:32;;;;;;;7.88;4.93;;;14.10;99.90;;;;;;5002850;28;20034;-60
2022/06/08 00:14:58;;;;;;;5.75;4.22;;;14.00;99.90;;;;;;4998312;28;20559;-60
2022/06/08 00:17:24;;;;;;;10.23;4.80;;;14.00;99.90;;;;;;5002104;28;20018;-58
2022/06/08 00:19:49;;;;;;;9.68;4.85;;;13.90;99.90;;;;;;4988140;28;20034;-60
2022/06/08 00:22:17;;;;;;;6.25;4.72;;;13.90;99.90;;;;;;5002527;28;20037;-60
2022/06/08 00:24:43;;;;;;;7.00;3.95;;;13.90;99.90;;;;;;5001864;28;20030;-59
2022/06/08 00:27:09;;;;;;;7.35;3.97;;;13.80;99.90;;;;;;4998473;28;20042;-58
2022/06/08 00:29:34;;;;;;;7.63;4.00;;;13.80;99.90;;;;;;5006122;28;20080;-57
2022/06/08 00:32:00;;;;;;;6.70;4.03;;;13.80;99.90;;;;;;4998383;28;20030;-59
2022/06/08 00:34:26;;;;;;;6.88;3.97;;;13.80;99.90;;;;;;5010574;28;20026;-59
2022/06/08 00:36:51;;;;;;;7.30;4.03;;;13.70;99.90;;;;;;5020835;28;21638;-59
2022/06/08 00:39:17;;;;;;;8.00;4.22;;;13.80;99.90;;;;;;5010433;28;20048;-58
2022/06/08 00:41:55;;;;;;;15.38;4.57;;;13.70;99.90;;;;;;5001861;28;20028;-56
2022/06/08 00:44:25;;;;;;;6.85;4.20;;;13.80;99.90;;;;;;4998989;28;20076;-60
2022/06/08 00:46:53;;;;;;;6.03;3.78;;;13.80;99.90;;;;;;4979477;28;20010;-60
2022/06/08 00:49:51;;;;;;;6.38;3.40;;;13.80;99.90;;;;;;4998650;28;20058;-59
2022/06/08 00:52:17;;;;;;;5.30;3.83;;;13.80;99.90;;;;;;4999259;28;20157;-58
2022/06/08 00:54:51;;;;;;;6.53;3.65;;;13.90;99.90;;;;;;4998436;28;20157;-57
2022/06/08 00:57:24;;;;;;;6.18;3.08;;;13.90;99.90;;;;;;5008727;28;20515;-57
2022/06/08 01:00:14;;;;;;;12.32;3.47;;;13.80;99.90;;;;;;4995283;28;20031;-58
2022/06/08 01:02:40;;;;;;;6.85;3.60;;;13.80;99.90;;;;;;5004223;28;20495;-57
2022/06/08 01:05:15;;;;;;;5.22;3.30;;;13.80;99.90;;;;;;5002137;28;20056;-57
2022/06/08 01:07:41;;;;;;;7.60;3.35;;;13.80;99.90;;;;;;5000973;28;20049;-56
2022/06/08 01:10:14;;;;;;;9.70;3.40;;;13.70;99.90;;;;;;4999262;28;20755;-58
2022/06/08 01:12:41;;;;;;;8.17;3.80;;;13.70;99.90;;;;;;5000113;28;20030;-57
2022/06/08 01:15:07;;;;;;;8.43;3.58;;;13.70;99.90;;;;;;5001054;28;20545;-59
2022/06/08 01:17:34;;;;;;;6.38;3.10;;;13.70;99.90;;;;;;4999311;28;20213;-57
2022/06/08 01:19:59;;;;;;;5.43;3.75;;;13.80;99.90;;;;;;4985907;28;20560;-58
2022/06/08 01:22:25;;;;;;;5.38;3.33;;;13.80;99.90;;;;;;4999507;28;20057;-59
2022/06/08 01:24:52;;;;;;;12.52;3.80;;;13.80;99.90;;;;;;5000541;28;20029;-58
2022/06/08 01:27:23;;;;;;;8.70;4.00;;;13.80;99.90;;;;;;5006254;28;20042;-60
2022/06/08 01:30:15;;;;;;;4.90;3.40;;;13.80;99.90;;;;;;5009363;28;20033;-61
2022/06/08 01:32:56;;;;;;;6.82;3.58;;;13.90;99.90;;;;;;5008909;28;20034;-60
2022/06/08 01:35:54;;;;;;;5.82;4.13;;;13.90;99.90;;;;;;5009921;28;20516;-55
2022/06/08 01:39:07;;;;;;;11.82;3.53;;;14.00;99.90;;;;;;5007950;28;20104;-59
2022/06/08 01:42:02;;;;;;;6.57;3.85;;;14.00;99.90;;;;;;4997453;28;20044;-59
2022/06/08 01:44:39;;;;;;;12.20;4.13;;;14.00;99.90;;;;;;5008181;28;20880;-60
2022/06/08 01:47:12;;;;;;;4.95;3.60;;;14.00;99.90;;;;;;5006501;28;20026;-57
2022/06/08 01:49:45;;;;;;;4.18;3.78;;;14.00;99.90;;;;;;5032481;28;20030;-59
2022/06/08 01:52:36;;;;;;;6.55;4.20;;;14.00;99.90;;;;;;5005402;28;20403;-56
2022/06/08 01:55:11;;;;;;;6.65;3.13;;;14.00;99.90;;;;;;5004785;28;20026;-55
2022/06/08 01:58:14;;;;;;;7.47;3.60;;;14.00;99.90;;;;;;5008138;28;20112;-59
2022/06/08 02:00:49;;;;;;;6.85;3.63;;;14.00;99.90;;;;;;5007180;28;20032;-58
2022/06/08 02:03:28;;;;;;;4.38;3.50;;;14.00;99.90;;;;;;5009774;28;20104;-59
2022/06/08 02:06:07;;;;;;;9.35;2.95;;;14.00;99.90;;;;;;5008942;28;20056;-57
2022/06/08 02:08:50;;;;;;;6.63;3.30;;;14.00;99.90;;;;;;5008719;28;20745;-60
2022/06/08 02:11:16;;;;;;;10.32;3.53;;;14.00;99.90;;;;;;5009250;28;20041;-59
2022/06/08 02:13:50;;;;;;;5.68;3.35;;;14.00;99.90;;;;;;5009436;28;20056;-58
2022/06/08 02:16:21;;;;;;;5.65;3.58;;;14.00;99.90;;;;;;5006908;28;20026;-57
2022/06/08 02:19:06;;;;;;;6.70;3.25;;;14.00;99.90;;;;;;5009291;28;20117;-57
2022/06/08 02:21:36;;;;;;;6.13;3.42;;;14.00;99.90;;;;;;4987780;28;20053;-57
2022/06/08 02:24:11;;;;;;;9.70;3.70;;;14.00;99.90;;;;;;5007069;28;20084;-59
2022/06/08 02:26:41;;;;;;;5.30;3.40;;;14.00;99.90;;;;;;5008156;28;20518;-59
2022/06/08 02:29:36;;;;;;;10.23;3.97;;;14.00;99.90;;;;;;5008971;28;20834;-57
2022/06/08 02:35:08;;;;;;;8.40;3.28;;;13.90;99.90;;;;;;5007994;28;20064;-58
2022/06/08 02:37:35;;;;;;;11.27;3.80;;;13.70;99.90;;;;;;5005745;28;20018;-57
2022/06/08 02:40:24;;;;;;;5.95;3.80;;;13.60;99.90;;;;;;5005355;28;20022;-59
2022/06/08 02:42:55;;;;;;;6.03;3.55;;;13.60;99.90;;;;;;5007114;28;20058;-60
2022/06/08 02:45:27;;;;;;;7.15;4.15;;;13.50;99.90;;;;;;5008281;28;20037;-58
2022/06/08 02:47:57;;;;;;;5.65;4.35;;;13.50;99.90;;;;;;5007516;28;20026;-59
2022/06/08 02:50:25;;;;;;;12.95;5.43;;;13.50;99.90;;;;;;5002299;28;20026;-60
2022/06/08 02:53:04;;;;;;;5.03;3.95;;;13.50;99.90;;;;;;5008435;28;20072;-58
2022/06/08 02:55:48;;;;;;;6.10;3.88;;;13.50;99.90;;;;;;5005300;28;20033;-61
2022/06/08 02:58:21;;;;;;;6.53;4.38;;;13.50;99.90;;;;;;5008890;28;20033;-61
2022/06/08 03:00:54;;;;;;;5.95;3.92;;;13.50;99.90;;;;;;5004859;28;20484;-60
2022/06/08 03:03:25;;;;;;;9.27;4.45;;;13.50;99.90;;;;;;4995080;28;20050;-59
2022/06/08 03:06:04;;;;;;;10.27;3.80;;;13.50;99.90;;;;;;5003501;28;20112;-60
2022/06/08 03:08:37;;;;;;;7.75;4.07;;;13.50;99.90;;;;;;5002034;28;20041;-58
2022/06/08 03:11:06;;;;;;;4.90;4.20;;;13.40;99.90;;;;;;5003302;28;20500;-58
2022/06/08 03:13:44;;;;;;;12.75;5.10;;;13.40;99.90;;;;;;5008308;28;20040;-59
2022/06/08 03:16:27;;;;;;;7.05;3.85;;;13.30;99.90;;;;;;5007843;28;20022;-57
2022/06/08 03:18:54;;;;;;;5.10;3.85;;;13.30;99.90;;;;;;5002379;28;20585;-58
2022/06/08 03:21:19;;;;;;;6.68;3.83;;;13.30;99.90;;;;;;4991889;28;20053;-60
2022/06/08 03:23:46;;;;;;;4.60;3.60;;;13.30;99.90;;;;;;5008481;28;20026;-61
2022/06/08 03:26:12;;;;;;;6.85;3.75;;;13.30;99.90;;;;;;5005531;28;20126;-59
2022/06/08 03:28:38;;;;;;;6.75;3.65;;;13.30;99.90;;;;;;5008424;28;20125;-58
2022/06/08 03:31:03;;;;;;;5.90;3.63;;;13.40;99.90;;;;;;5007946;28;20519;-60
2022/06/08 03:33:29;;;;;;;4.78;3.95;;;13.40;99.90;;;;;;5010862;28;20029;-61
2022/06/08 03:35:54;;;;;;;7.03;4.10;;;13.40;99.90;;;;;;5012334;28;20025;-59
2022/06/08 03:38:20;;;;;;;5.18;3.28;;;13.50;99.90;;;;;;5009861;28;20034;-59
2022/06/08 03:40:46;;;;;;;5.03;3.53;;;13.60;99.90;;;;;;5010639;28;20463;-60
2022/06/08 03:43:11;;;;;;;3.78;2.90;;;13.70;99.90;;;;;;5010386;28;20073;-53
2022/06/08 03:45:44;;;;;;;4.80;3.38;;;13.80;99.90;;;;;;5012064;28;20384;-60
2022/06/08 03:48:10;;;;;;;3.72;2.90;;;13.90;99.90;;;;;;5011149;28;20030;-59
2022/06/08 03:50:37;;;;;;;5.72;2.90;;;14.00;99.90;;;;;;5010646;28;20117;-59
2022/06/08 03:53:07;;;;;;;3.22;2.92;;;14.10;99.90;;;;;;5010721;28;20022;-59
2022/06/08 03:55:35;;;;;;;14.40;3.25;;;14.10;99.90;;;;;;5010525;28;20018;-60
2022/06/08 03:58:02;;;;;;;5.07;2.40;;;14.20;99.90;;;;;;5014305;28;20042;-61
2022/06/08 04:00:28;;;;;;;5.25;2.60;;;14.30;99.90;;;;;;5010608;28;20068;-60
2022/06/08 04:02:54;;;;;;;3.60;2.35;;;14.40;99.90;;;;;;5012250;28;20200;-59
2022/06/08 04:05:20;;;;;;;5.32;2.75;;;14.50;99.90;;;;;;5011397;28;20497;-58
2022/06/08 04:07:46;;;;;;;2.20;2.00;;;14.60;99.90;;;;;;5012174;28;20029;-57
2022/06/08 04:10:13;;;;;;;4.68;2.30;;;14.70;99.90;;;;;;5011458;28;20399;-59
2022/06/08 04:12:39;;;;;;;3.45;2.50;;;14.80;99.90;;;;;;5012074;28;20030;-60
2022/06/08 04:15:06;;;;;;;3.85;2.83;;;14.70;99.90;;;;;;5010270;28;20663;-60
2022/06/08 04:17:31;;;;;;;6.07;3.03;;;14.70;99.90;;;;;;5009605;28;20036;-59
2022/06/08 04:19:57;;;;;;;4.82;2.80;;;14.60;99.90;;;;;;5010268;28;20387;-59
2022/06/08 04:22:30;;;;;;;3.55;2.78;;;14.60;99.90;;;;;;4993709;28;20498;-59
2022/06/08 04:24:56;;;;;;;3.90;2.40;;;14.60;99.90;;;;;;5009526;28;20030;-56
2022/06/08 04:27:22;;;;;;;5.55;2.70;;;14.50;99.90;;;;;;5010301;28;20048;-60
2022/06/08 04:29:48;;;;;;;3.40;2.85;;;14.50;99.90;;;;;;5010760;28;20057;-54
2022/06/08 04:32:14;;;;;;;7.90;2.78;;;14.40;99.90;;;;;;5009683;28;20062;-57
2022/06/08 04:34:41;;;;;;;4.50;2.70;;;14.30;99.90;;;;;;5010306;28;20033;-58
2022/06/08 04:37:07;;;;;;;3.42;2.65;;;14.30;99.90;;;;;;5010331;28;20026;-59
2022/06/08 04:39:32;;;;;;;4.88;2.35;;;14.30;99.90;;;;;;5009500;28;20101;-56
2022/06/08 04:41:58;;;;;;;3.08;2.40;;;14.30;99.90;;;;;;5008367;28;20034;-60
2022/06/08 04:44:24;;;;;;;5.22;2.40;;;14.30;99.90;;;;;;5009323;28;20113;-60
2022/06/08 04:46:50;;;;;;;3.65;2.45;;;14.30;99.90;;;;;;5009130;28;20018;-57
2022/06/08 04:49:16;;;;;;;2.42;2.20;;;14.30;99.90;;;;;;5009367;28;20062;-58
2022/06/08 04:51:42;;;;;;;2.92;2.55;;;14.30;99.90;;;;;;5009638;28;20060;-58
2022/06/08 04:54:08;;;;;;;4.15;3.10;;;14.40;99.90;;;;;;5002989;28;20106;-58
2022/06/08 04:56:33;;;;;;;4.55;2.40;;;14.50;99.90;;;;;;5003559;28;20507;-57
2022/06/08 04:58:59;;;;;;;3.88;2.35;;;14.60;99.90;;;;;;5010435;28;20032;-60
2022/06/08 05:01:25;;;;;;;4.35;2.63;;;14.70;99.90;;;;;;5008892;28;20026;-60
2022/06/08 05:03:50;;;;;;;6.78;2.47;;;14.70;99.90;;;;;;5004822;28;20033;-59
2022/06/08 05:06:16;;;;;;;4.45;2.70;;;14.70;99.90;;;;;;5005045;28;20034;-59
2022/06/08 05:08:41;;;;;;;3.28;2.50;;;14.80;99.90;;;;;;5010981;28;20101;-56
2022/06/08 05:11:08;;;;;;;5.40;2.60;;;14.90;99.90;;;;;;5010210;28;20491;-58
2022/06/08 05:13:34;;;;;;;2.90;2.00;;;14.80;99.90;;;;;;5003121;28;20039;-60
2022/06/08 05:16:01;;;;;;;8.00;2.28;;;14.90;99.90;;;;;;5008075;28;20026;-55
2022/06/08 05:18:26;;;;;;;6.65;2.53;;;14.90;99.90;;;;;;5007840;28;20092;-59
2022/06/08 05:20:53;;;;;;;6.60;2.50;;;15.00;99.90;;;;;;5010172;28;20026;-60
2022/06/08 05:23:30;;;;;;;6.35;2.45;;;15.00;99.90;;;;;;4992477;28;20053;-60
2022/06/08 05:25:56;;;;;;;2.63;2.42;;;15.10;99.90;;;;;;5004804;28;20113;-60
2022/06/08 05:28:23;;;;;;;2.83;2.10;;;15.10;99.90;;;;;;5008691;28;20495;-61
2022/06/08 05:30:49;;;;;;;4.95;2.80;;;15.20;99.90;;;;;;5006542;28;20053;-61
2022/06/08 05:33:15;;;;;;;3.60;2.63;;;15.20;99.90;;;;;;5007251;28;20458;-53
2022/06/08 05:35:42;;;;;;;5.50;2.30;;;15.30;99.90;;;;;;5000443;28;20475;-60
2022/06/08 05:38:08;;;;;;;12.88;2.72;;;15.40;99.90;;;;;;5009435;28;20105;-60
2022/06/08 05:40:37;;;;;;;2.70;2.40;;;15.40;99.90;;;;;;5007235;28;20018;-60
2022/06/08 05:43:04;;;;;;;2.92;2.15;;;15.50;99.90;;;;;;5005063;28;20030;-60
2022/06/08 05:45:31;;;;;;;3.15;2.45;;;15.70;99.90;;;;;;5006472;28;20498;-59
2022/06/08 05:47:58;;;;;;;2.95;2.08;;;15.80;99.90;;;;;;5011252;28;20037;-61
2022/06/08 05:50:25;;;;;;;1.92;1.65;;;15.90;99.90;;;;;;5007479;28;20065;-59
2022/06/08 05:52:51;;;;;;;4.88;2.53;;;15.90;99.90;;;;;;5008607;28;20581;-60
2022/06/08 05:55:17;;;;;;;2.50;2.00;;;16.10;99.90;;;;;;5008162;28;20026;-57
2022/06/08 05:57:43;;;;;;;5.03;2.20;;;16.30;99.90;;;;;;5006612;28;20026;-61
2022/06/08 06:00:14;;;;;;;3.35;2.15;;;16.50;99.90;;;;;;5007414;28;20030;-61
2022/06/08 06:02:40;;;;;;;2.22;1.48;;;16.70;99.90;;;;;;5020917;28;20029;-60
2022/06/08 06:05:06;;;;;;;2.33;1.83;;;17.10;99.90;;;;;;5008906;28;20091;-60
2022/06/08 06:07:32;;;;;;;2.00;1.63;;;17.30;99.90;;;;;;5008949;28;20036;-61
2022/06/08 06:10:02;;;;;;;2.28;1.38;;;17.70;99.90;;;;;;5004643;28;20038;-59
2022/06/08 06:12:28;;;;;;;3.30;1.80;;;17.90;99.90;;;;;;5007418;28;20029;-61
2022/06/08 06:14:54;;;;;;;4.43;1.58;;;18.30;99.90;;;;;;5005037;28;20032;-60
2022/06/08 06:17:20;;;;;;;3.17;1.27;;;19.10;99.90;;;;;;5009114;28;20030;-60
2022/06/08 06:19:45;;;;;;;3.70;1.20;;;19.90;99.90;;;;;;5006758;28;20084;-57
2022/06/08 06:22:11;;;;;;;3.70;1.40;;;21.00;99.90;;;;;;4994382;28;20069;-53
2022/06/08 06:24:36;;;;;;;2.15;1.10;;;22.10;99.90;;;;;;5009696;28;20045;-60
2022/06/08 06:27:03;;;;;;;1.45;0.98;;;22.70;99.90;;;;;;5008931;28;20018;-61
2022/06/08 06:29:29;;;;;;;2.35;1.23;;;23.70;99.90;;;;;;5010541;28;20030;-58
2022/06/08 06:32:20;;;;;;;4.60;1.13;;;24.00;99.60;;;;;;5008160;28;20429;-58
2022/06/08 06:34:46;;;;;;;3.13;1.00;;;24.30;97.50;;;;;;5008113;28;20408;-57
2022/06/08 06:37:11;;;;;;;2.05;0.90;;;24.60;98.30;;;;;;5008401;28;20031;-57
2022/06/08 06:39:37;;;;;;;7.10;1.40;;;24.50;97.10;;;;;;5007896;28;20030;-56
2022/06/08 06:42:03;;;;;;;2.05;1.10;;;24.50;96.70;;;;;;5008335;28;20033;-58
2022/06/08 06:44:28;;;;;;;1.00;0.85;;;24.90;97.40;;;;;;5007892;28;20022;-57
2022/06/08 06:46:54;;;;;;;2.33;1.65;;;24.80;95.90;;;;;;5007677;28;20026;-59
2022/06/08 06:49:20;;;;;;;4.78;1.05;;;24.30;96.20;;;;;;5008386;28;20041;-56
2022/06/08 06:51:45;;;;;;;0.98;0.80;;;24.60;95.90;;;;;;5007503;28;20113;-58
2022/06/08 06:54:11;;;;;;;4.20;1.10;;;25.20;96.70;;;;;;5005321;28;20068;-57
2022/06/08 06:56:37;;;;;;;0.90;0.82;;;25.70;94.60;;;;;;5005502;28;20025;-54
2022/06/08 06:59:04;;;;;;;1.10;0.80;;;26.10;96.30;;;;;;5000637;28;20030;-58
2022/06/08 07:01:30;;;;;;;1.83;0.80;;;26.00;94.40;;;;;;5006374;28;20022;-60
2022/06/08 07:03:57;;;;;;;2.05;0.80;;;26.00;95.60;;;;;;5007945;28;20029;-57
2022/06/08 07:06:23;;;;;;;1.35;0.60;;;26.30;93.90;;;;;;5006631;28;20030;-60
2022/06/08 07:08:48;;;;;;;4.15;1.40;;;26.80;92.40;;;;;;5010272;28;20030;-59
2022/06/08 07:11:33;;;;;;;2.88;0.80;;;26.80;92.50;;;;;;5010152;28;20489;-52
2022/06/08 07:14:00;;;;;;;4.63;1.10;;;26.40;92.20;;;;;;5012581;28;20109;-60
2022/06/08 07:16:26;;;;;;;1.27;0.80;;;25.90;92.30;;;;;;5010616;28;20030;-56
2022/06/08 07:18:52;;;;;;;3.58;1.00;;;25.40;93.70;;;;;;5011737;28;20022;-57
2022/06/08 07:21:18;;;;;;;1.05;0.85;;;24.90;95.20;;;;;;5010671;28;20096;-55
2022/06/08 07:23:44;;;;;;;2.10;0.82;;;24.60;95.40;;;;;;4982426;28;20046;-60
2022/06/08 07:26:10;;;;;;;5.55;0.80;;;24.10;96.70;;;;;;4993905;28;20499;-59
2022/06/08 07:28:36;;;;;;;3.72;1.02;;;23.60;98.20;;;;;;4998380;28;20072;-59
2022/06/08 07:31:02;;;;;;;2.03;1.02;;;23.10;98.50;;;;;;4990678;28;20038;-60
2022/06/08 07:33:28;;;;;;;20.27;3.05;;;22.50;99.70;;;;;;4999752;28;20038;-56
2022/06/08 07:35:54;;;;;;;5.45;1.13;;;22.10;99.90;;;;;;5000003;28;20026;-59
2022/06/08 07:38:20;;;;;;;1.10;0.77;;;21.90;99.90;;;;;;4993037;28;20412;-54
2022/06/08 07:40:47;;;;;;;2.10;0.85;;;21.80;99.90;;;;;;4990717;28;20080;-57
2022/06/08 07:43:12;;;;;;;1.90;0.95;;;21.70;99.90;;;;;;4999172;28;20033;-58
2022/06/08 07:45:38;;;;;;;1.50;1.10;;;21.60;99.90;;;;;;5005566;28;20041;-58
2022/06/08 07:50:59;;;;;;;1.75;0.70;;;21.70;99.90;;;;;;4986640;28;20030;-59
2022/06/08 07:53:24;;;;;;;1.45;0.90;;;21.60;99.90;;;;;;4999439;28;20034;-58
2022/06/08 07:55:50;;;;;;;3.75;1.30;;;21.70;99.90;;;;;;4995854;28;20034;-58
2022/06/08 07:58:15;;;;;;;8.70;2.92;;;21.80;99.90;;;;;;4992593;28;20061;-58
2022/06/08 08:00:47;;;;;;;4.05;1.00;;;21.90;99.90;;;;;;4997096;28;20037;-58
2022/06/08 08:03:17;;;;;;;9.88;1.08;;;21.90;99.90;;;;;;5001786;28;20148;-50
2022/06/08 08:05:44;;;;;;;3.25;0.90;;;22.40;99.90;;;;;;5008138;28;20027;-60
2022/06/08 08:08:11;;;;;;;3.38;0.95;;;22.60;99.90;;;;;;4991218;28;20117;-59
2022/06/08 08:10:37;;;;;;;5.47;1.10;;;22.70;99.90;;;;;;4997158;28;20488;-59
2022/06/08 08:13:03;;;;;;;9.18;1.10;;;22.80;99.90;;;;;;5000932;28;20037;-58
2022/06/08 08:15:29;;;;;;;4.65;0.95;;;23.20;99.90;;;;;;4994284;28;20038;-59
2022/06/08 08:17:56;;;;;;;7.22;1.13;;;24.00;99.90;;;;;;5000396;28;20030;-57
2022/06/08 08:20:24;;;;;;;5.88;1.10;;;24.80;99.00;;;;;;4995804;28;20019;-60
2022/06/08 08:22:50;;;;;;;3.25;1.20;;;25.90;95.40;;;;;;4980661;28;20042;-59
2022/06/08 08:25:17;;;;;;;3.38;0.77;;;26.10;93.90;;;;;;5011165;28;20037;-53
2022/06/08 08:27:44;;;;;;;2.50;1.10;;;26.60;94.40;;;;;;5011476;28;20025;-59
2022/06/08 08:30:13;;;;;;;2.88;0.90;;;27.10;94.00;;;;;;5010894;28;20041;-60
2022/06/08 08:32:39;;;;;;;2.33;0.80;;;27.40;94.60;;;;;;5004076;28;20037;-58
2022/06/08 08:35:05;;;;;;;3.80;0.88;;;28.10;91.30;;;;;;5010982;28;20629;-60
2022/06/08 08:37:31;;;;;;;3.95;0.80;;;27.60;90.80;;;;;;5009239;28;20615;-60
2022/06/08 08:39:57;;;;;;;3.20;0.90;;;27.30;91.90;;;;;;5010109;28;20092;-57
2022/06/08 08:42:24;;;;;;;3.97;0.90;;;27.50;90.80;;;;;;5009487;28;20484;-58
2022/06/08 08:45:03;;;;;;;5.30;1.05;;;27.60;91.60;;;;;;5010433;28;20054;-60
2022/06/08 08:47:34;;;;;;;9.27;1.17;;;27.90;90.20;;;;;;5007846;28;20034;-59
2022/06/08 08:50:17;;;;;;;7.45;1.27;;;27.90;88.80;;;;;;5009283;28;20080;-59
2022/06/08 08:52:48;;;;;;;6.22;1.20;;;27.90;89.40;;;;;;5008783;28;20086;-57
2022/06/08 08:55:39;;;;;;;5.70;1.40;;;27.80;90.70;;;;;;5010459;28;20072;-60
2022/06/08 08:58:25;;;;;;;4.32;1.27;;;27.40;89.40;;;;;;5008861;28;20026;-59
2022/06/08 09:00:57;;;;;;;4.97;1.10;;;27.80;90.00;;;;;;5009585;28;20129;-57
2022/06/08 09:03:28;;;;;;;3.38;0.90;;;27.00;90.10;;;;;;5008619;28;20058;-59
2022/06/08 09:06:13;;;;;;;8.32;1.30;;;27.10;91.20;;;;;;5006897;28;20032;-57
2022/06/08 09:08:43;;;;;;;3.65;1.40;;;26.40;91.20;;;;;;5009214;28;20033;-59
2022/06/08 09:11:16;;;;;;;2.53;0.90;;;26.80;91.10;;;;;;5006659;28;20061;-57
2022/06/08 09:13:56;;;;;;;7.22;1.33;;;27.70;89.90;;;;;;5003392;28;20032;-58
2022/06/08 09:16:35;;;;;;;4.22;1.45;;;28.60;85.70;;;;;;5006447;28;20029;-55
2022/06/08 09:19:21;;;;;;;4.68;1.05;;;28.60;87.30;;;;;;5009671;28;20026;-57
2022/06/08 09:21:47;;;;;;;7.47;1.80;;;27.30;84.00;;;;;;5010239;28;20037;-60
2022/06/08 09:24:33;;;;;;;7.10;1.17;;;27.10;85.90;;;;;;4984782;28;20060;-60
2022/06/08 09:27:26;;;;;;;8.23;0.95;;;26.40;82.60;;;;;;5008753;28;20045;-54
2022/06/08 09:30:00;;;;;;;7.47;1.75;;;26.30;86.80;;;;;;5006232;28;20018;-60
2022/06/08 09:32:39;;;;;;;2.78;1.17;;;25.70;88.50;;;;;;5009533;28;20042;-60
2022/06/08 09:35:34;;;;;;;9.77;2.03;;;25.10;89.30;;;;;;5009915;28;20053;-59
2022/06/08 09:38:28;;;;;;;4.88;0.90;;;25.50;89.90;;;;;;5004659;28;20776;-60
2022/06/08 09:41:27;;;;;;;3.58;1.05;;;26.40;86.90;;;;;;5002822;28;20117;-61
2022/06/08 09:44:19;;;;;;;7.95;1.13;;;25.80;84.80;;;;;;5007588;28;20042;-59
2022/06/08 09:52:51;;;;;;;4.80;1.50;;;24.60;90.60;;;;;;5007060;28;20152;-57
2022/06/08 09:55:23;;;;;;;7.68;1.20;;;24.20;91.80;;;;;;5006548;28;20129;-53
2022/06/08 09:58:08;;;;;;;5.82;1.30;;;23.60;92.20;;;;;;5009187;28;20589;-59
2022/06/08 10:00:39;;;;;;;7.75;1.25;;;23.10;93.40;;;;;;5007180;28;20052;-60
2022/06/08 10:03:44;;;;;;;5.40;1.05;;;22.60;94.20;;;;;;5008681;28;20045;-59
2022/06/08 10:07:01;;;;;;;3.80;1.35;;;22.30;95.30;;;;;;5005881;28;20030;-54
2022/06/08 10:09:52;;;;;;;3.92;1.33;;;21.80;97.10;;;;;;4995974;28;20416;-58
2022/06/08 10:12:36;;;;;;;8.95;1.58;;;21.40;96.90;;;;;;5007447;28;20437;-59
2022/06/08 10:15:12;;;;;;;7.32;1.33;;;21.10;98.20;;;;;;5008267;28;20679;-58
2022/06/08 10:17:46;;;;;;;7.35;1.40;;;20.80;99.50;;;;;;5008812;28;20033;-60
2022/06/08 10:20:38;;;;;;;5.13;1.42;;;20.60;99.90;;;;;;5000393;28;20093;-57
2022/06/08 10:23:21;;;;;;;7.65;1.40;;;20.60;99.90;;;;;;4985985;28;20121;-56
2022/06/08 10:25:59;;;;;;;12.70;1.48;;;20.40;99.90;;;;;;4978147;28;20034;-58
2022/06/08 10:28:47;;;;;;;8.23;1.45;;;20.30;99.90;;;;;;4978353;28;20409;-59
2022/06/08 10:31:19;;;;;;;3.85;1.10;;;20.30;99.90;;;;;;4981613;28;20030;-57
2022/06/08 10:33:58;;;;;;;7.55;1.42;;;20.40;99.90;;;;;;4976618;28;20045;-58
2022/06/08 10:36:25;;;;;;;8.85;2.42;;;20.40;99.90;;;;;;4972133;28;20038;-59
2022/06/08 10:38:51;;;;;;;7.22;1.17;;;20.60;99.90;;;;;;4979757;28;20026;-59
2022/06/08 10:44:31;;;;;;;8.35;2.05;;;21.30;99.90;;;;;;4981660;28;20045;-59
2022/06/08 10:47:18;;;;;;;8.13;1.15;;;21.80;99.90;;;;;;4980032;28;20444;-58
2022/06/08 10:49:49;;;;;;;4.55;1.10;;;22.10;99.70;;;;;;4982502;28;20105;-59
2022/06/08 10:52:17;;;;;;;5.85;1.20;;;22.30;98.90;;;;;;4980846;28;20587;-58
2022/06/08 10:54:54;;;;;;;12.45;2.72;;;22.60;98.80;;;;;;4985900;28;20546;-59
2022/06/08 10:57:35;;;;;;;4.40;1.13;;;22.80;99.10;;;;;;4985966;28;20031;-57
2022/06/08 11:00:19;;;;;;;4.55;1.13;;;23.20;98.10;;;;;;4983444;28;20030;-60
2022/06/08 11:02:54;;;;;;;5.03;1.45;;;23.10;99.20;;;;;;4981298;28;20022;-59
2022/06/08 11:05:29;;;;;;;9.70;1.83;;;22.90;99.90;;;;;;4981343;28;20031;-56
2022/06/08 11:08:01;;;;;;;6.03;1.08;;;22.60;99.90;;;;;;4983341;28;20081;-59
2022/06/08 11:10:43;;;;;;;9.07;1.80;;;22.10;99.90;;;;;;4985713;28;20408;-60
2022/06/08 11:13:22;;;;;;;7.72;1.60;;;21.20;99.90;;;;;;4977743;28;20022;-58
2022/06/08 11:16:00;;;;;;;12.60;1.75;;;20.00;99.90;;;;;;4985157;28;20169;-56
2022/06/08 11:18:47;;;;;;;12.75;1.95;;;19.30;99.90;;;;;;4982757;28;20084;-59
2022/06/08 11:21:23;;;;;;;5.57;1.90;;;18.90;99.90;;;;;;4989004;28;20484;-58
2022/06/08 11:23:55;;;;;;;11.57;2.28;;;18.70;99.90;;;;;;4973559;28;20050;-59
2022/06/08 11:26:23;;;;;;;5.32;1.70;;;18.60;99.90;;;;;;4991202;28;20035;-59
2022/06/08 11:28:50;;;;;;;7.10;1.70;;;18.60;99.90;;;;;;4992453;28;20046;-58
2022/06/08 11:31:26;;;;;;;7.05;1.83;;;18.80;99.90;;;;;;4983086;28;20031;-57
2022/06/08 11:33:57;;;;;;;5.60;1.80;;;18.90;99.90;;;;;;4982216;28;20044;-57
2022/06/08 11:36:54;;;;;;;9.02;2.17;;;18.90;99.90;;;;;;4987940;28;20121;-59
2022/06/08 11:39:34;;;;;;;6.80;1.70;;;19.00;99.90;;;;;;4997999;28;20027;-56
2022/06/08 11:42:14;;;;;;;6.47;1.40;;;19.00;99.90;;;;;;4989991;28;20439;-56
2022/06/08 11:45:08;;;;;;;6.63;1.40;;;19.10;99.90;;;;;;4989332;28;20033;-60
2022/06/08 11:47:44;;;;;;;6.80;2.10;;;19.00;99.90;;;;;;4992601;28;20022;-59
2022/06/08 11:50:20;;;;;;;5.40;1.30;;;19.10;99.90;;;;;;4991911;28;20566;-59
2022/06/08 11:52:57;;;;;;;9.07;2.15;;;19.10;99.90;;;;;;4991237;28;20042;-60
2022/06/08 11:55:27;;;;;;;8.20;1.80;;;19.20;99.90;;;;;;4991052;28;20023;-59
2022/06/08 11:57:56;;;;;;;7.10;1.83;;;19.50;99.90;;;;;;4986373;28;20472;-59
2022/06/08 12:00:22;;;;;;;8.68;1.98;;;19.80;99.90;;;;;;4990888;28;20583;-60
2022/06/08 12:02:52;;;;;;;6.20;1.88;;;20.00;99.90;;;;;;4988880;28;20117;-57
2022/06/08 12:05:24;;;;;;;6.22;1.88;;;20.40;99.90;;;;;;4991776;28;20484;-58
2022/06/08 12:08:26;;;;;;;7.35;2.10;;;20.30;99.90;;;;;;4981531;28;20843;-58
2022/06/08 12:10:52;;;;;;;9.57;1.85;;;20.60;99.90;;;;;;4982761;28;20026;-59
2022/06/08 12:13:21;;;;;;;9.15;1.50;;;20.40;99.90;;;;;;4988577;28;20031;-58
2022/06/08 12:15:56;;;;;;;4.75;1.52;;;20.40;99.90;;;;;;4986644;28;20026;-58
2022/06/08 12:18:27;;;;;;;5.47;1.55;;;20.60;99.90;;;;;;4990710;28;20038;-56
2022/06/08 12:21:28;;;;;;;7.65;1.65;;;20.80;99.90;;;;;;4983370;28;20046;-55
2022/06/08 12:23:59;;;;;;;6.90;1.38;;;20.40;99.90;;;;;;4970165;28;20416;-55
2022/06/08 12:26:27;;;;;;;8.02;1.80;;;20.30;99.90;;;;;;4989290;28;20026;-57
2022/06/08 12:29:27;;;;;;;8.00;1.85;;;20.10;99.90;;;;;;4991028;28;20022;-60
2022/06/08 12:32:05;;;;;;;7.80;2.20;;;20.10;99.90;;;;;;4991641;28;20511;-60
2022/06/08 12:34:37;;;;;;;8.85;1.80;;;20.20;99.90;;;;;;4988714;28;20677;-58
2022/06/08 12:37:32;;;;;;;7.15;1.65;;;20.30;99.90;;;;;;4991313;28;20019;-59
2022/06/08 12:40:16;;;;;;;4.40;1.67;;;20.50;99.90;;;;;;4989085;28;20061;-60
2022/06/08 12:43:10;;;;;;;4.78;1.88;;;20.30;99.90;;;;;;4990981;28;20034;-61
2022/06/08 12:45:40;;;;;;;5.20;1.80;;;20.40;99.90;;;;;;4990959;28;20045;-59
2022/06/08 12:48:24;;;;;;;2.83;1.20;;;20.40;99.90;;;;;;4991848;28;20030;-60
2022/06/08 12:50:51;;;;;;;4.53;1.30;;;20.40;99.90;;;;;;4985796;28;20046;-58
2022/06/08 12:53:18;;;;;;;3.13;1.50;;;20.30;99.90;;;;;;4990181;28;20066;-56
2022/06/08 12:55:44;;;;;;;3.92;1.40;;;20.40;99.90;;;;;;4990710;28;20022;-60
2022/06/08 12:58:10;;;;;;;5.40;1.58;;;20.40;99.90;;;;;;4988054;28;20026;-60
2022/06/08 13:00:38;;;;;;;4.28;1.20;;;20.30;99.90;;;;;;4989192;28;20084;-57
2022/06/08 13:03:24;;;;;;;5.25;1.20;;;20.60;99.90;;;;;;4994785;28;20037;-59
2022/06/08 13:05:49;;;;;;;5.10;1.45;;;20.70;99.90;;;;;;4988262;28;20384;-60
2022/06/08 13:08:19;;;;;;;2.95;1.15;;;20.70;99.90;;;;;;4989913;28;20085;-59
2022/06/08 13:10:46;;;;;;;4.78;1.08;;;20.60;99.90;;;;;;4989305;28;20019;-57
2022/06/08 13:13:20;;;;;;;3.80;1.25;;;20.40;99.90;;;;;;4989314;28;20042;-56
2022/06/08 13:15:47;;;;;;;6.97;1.73;;;20.60;99.90;;;;;;4990599;28;20121;-60
2022/06/08 13:18:25;;;;;;;8.10;1.45;;;20.60;99.90;;;;;;4991524;28;20093;-58
2022/06/08 13:20:54;;;;;;;5.65;1.83;;;20.50;99.90;;;;;;4988835;28;20394;-58
2022/06/08 13:23:21;;;;;;;3.97;1.42;;;20.40;99.90;;;;;;4976146;28;20889;-51
2022/06/08 13:25:48;;;;;;;5.55;1.45;;;20.30;99.90;;;;;;4987800;28;20050;-59